sensor_id;sensor_type;location;lat;lon;timestamp;temperature;humidity
17152;DHT22;8691;50.828;4.700;2023-01-30T00:01:04;4.60;99.90
17152;DHT22;8691;50.828;4.700;2023-01-30T00:03:30;4.50;99.90
17152;DHT22;8691;50.828;4.700;2023-01-30T00:05:57;4.50;99.90
17152;DHT22;8691;50.828;4.700;2023-01-30T00:08:24;4.50;99.90
17152;DHT22;8691;50.828;4.700;2023-01-30T00:10:51;4.50;99.90
17152;DHT22;8691;50.828;4.700;2023-01-30T00:13:18;4.40;99.90
17152;DHT22;8691;50.828;4.700;2023-01-30T00:15:46;4.50;99.90
17152;DHT22;8691;50.828;4.700;2023-01-30T00:18:11;4.50;99.90
17152;DHT22;8691;50.828;4.700;2023-01-30T00:20:38;4.60;99.90
17152;DHT22;8691;50.828;4.700;2023-01-30T00:23:05;4.60;99.90
17152;DHT22;8691;50.828;4.700;2023-01-30T00:25:33;4.70;99.90
17152;DHT22;8691;50.828;4.700;2023-01-30T00:28:00;4.60;99.90
17152;DHT22;8691;50.828;4.700;2023-01-30T00:30:27;4.60;99.90
17152;DHT22;8691;50.828;4.700;2023-01-30T00:32:57;4.70;99.90
17152;DHT22;8691;50.828;4.700;2023-01-30T00:35:20;4.80;99.90
17152;DHT22;8691;50.828;4.700;2023-01-30T00:37:47;4.70;99.90
17152;DHT22;8691;50.828;4.700;2023-01-30T00:40:15;4.90;99.90
17152;DHT22;8691;50.828;4.700;2023-01-30T00:42:42;4.80;99.90
17152;DHT22;8691;50.828;4.700;2023-01-30T00:45:26;4.80;99.90
17152;DHT22;8691;50.828;4.700;2023-01-30T00:48:11;4.80;99.90
17152;DHT22;8691;50.828;4.700;2023-01-30T00:50:38;4.80;99.90
17152;DHT22;8691;50.828;4.700;2023-01-30T00:53:11;4.90;99.90
17152;DHT22;8691;50.828;4.700;2023-01-30T00:55:35;5.00;99.90
17152;DHT22;8691;50.828;4.700;2023-01-30T00:58:01;4.90;99.90
17152;DHT22;8691;50.828;4.700;2023-01-30T01:00:28;4.90;99.90
17152;DHT22;8691;50.828;4.700;2023-01-30T01:02:55;4.90;99.90
17152;DHT22;8691;50.828;4.700;2023-01-30T01:05:22;4.90;99.90
17152;DHT22;8691;50.828;4.700;2023-01-30T01:07:49;4.90;99.90
17152;DHT22;8691;50.828;4.700;2023-01-30T01:10:16;5.00;99.90
17152;DHT22;8691;50.828;4.700;2023-01-30T01:12:43;5.00;99.90
17152;DHT22;8691;50.828;4.700;2023-01-30T01:15:10;5.00;99.90
17152;DHT22;8691;50.828;4.700;2023-01-30T01:17:37;5.10;99.90
17152;DHT22;8691;50.828;4.700;2023-01-30T01:20:03;5.10;99.90
17152;DHT22;8691;50.828;4.700;2023-01-30T01:22:30;5.10;99.90
17152;DHT22;8691;50.828;4.700;2023-01-30T01:24:57;5.20;99.90
17152;DHT22;8691;50.828;4.700;2023-01-30T01:27:25;5.30;99.90
17152;DHT22;8691;50.828;4.700;2023-01-30T01:29:52;5.30;99.90
17152;DHT22;8691;50.828;4.700;2023-01-30T01:32:20;5.30;99.90
17152;DHT22;8691;50.828;4.700;2023-01-30T01:34:47;5.30;99.90
17152;DHT22;8691;50.828;4.700;2023-01-30T01:37:14;5.50;99.90
17152;DHT22;8691;50.828;4.700;2023-01-30T01:39:41;5.50;99.90
17152;DHT22;8691;50.828;4.700;2023-01-30T01:42:28;5.50;99.90
17152;DHT22;8691;50.828;4.700;2023-01-30T01:45:10;5.60;99.90
17152;DHT22;8691;50.828;4.700;2023-01-30T01:47:30;5.60;99.90
17152;DHT22;8691;50.828;4.700;2023-01-30T01:49:57;5.60;99.90
17152;DHT22;8691;50.828;4.700;2023-01-30T01:52:24;5.60;99.90
17152;DHT22;8691;50.828;4.700;2023-01-30T01:55:01;5.60;99.90
17152;DHT22;8691;50.828;4.700;2023-01-30T01:57:33;5.60;99.90
17152;DHT22;8691;50.828;4.700;2023-01-30T02:00:15;5.70;99.90
17152;DHT22;8691;50.828;4.700;2023-01-30T02:02:46;5.80;99.90
17152;DHT22;8691;50.828;4.700;2023-01-30T02:05:08;5.80;99.90
17152;DHT22;8691;50.828;4.700;2023-01-30T02:07:40;5.90;99.90
17152;DHT22;8691;50.828;4.700;2023-01-30T02:10:09;5.80;99.90
17152;DHT22;8691;50.828;4.700;2023-01-30T02:12:35;5.80;99.90
17152;DHT22;8691;50.828;4.700;2023-01-30T02:15:02;5.90;99.90
17152;DHT22;8691;50.828;4.700;2023-01-30T02:17:30;5.90;99.90
17152;DHT22;8691;50.828;4.700;2023-01-30T02:20:26;5.90;99.90
17152;DHT22;8691;50.828;4.700;2023-01-30T02:25:45;5.90;99.90
17152;DHT22;8691;50.828;4.700;2023-01-30T02:28:38;5.90;99.90
17152;DHT22;8691;50.828;4.700;2023-01-30T02:31:06;5.90;99.90
17152;DHT22;8691;50.828;4.700;2023-01-30T02:33:48;5.90;99.90
17152;DHT22;8691;50.828;4.700;2023-01-30T02:41:19;6.00;99.90
17152;DHT22;8691;50.828;4.700;2023-01-30T02:44:05;6.00;99.90
17152;DHT22;8691;50.828;4.700;2023-01-30T02:46:41;6.00;99.90
17152;DHT22;8691;50.828;4.700;2023-01-30T02:49:08;6.00;99.90
17152;DHT22;8691;50.828;4.700;2023-01-30T02:51:35;6.00;99.90
17152;DHT22;8691;50.828;4.700;2023-01-30T02:53:58;6.00;99.90
17152;DHT22;8691;50.828;4.700;2023-01-30T02:56:25;6.00;99.90
17152;DHT22;8691;50.828;4.700;2023-01-30T02:58:59;6.00;99.90
17152;DHT22;8691;50.828;4.700;2023-01-30T03:01:36;6.10;99.90
17152;DHT22;8691;50.828;4.700;2023-01-30T03:06:42;6.00;99.90
17152;DHT22;8691;50.828;4.700;2023-01-30T03:10:07;6.10;99.90
17152;DHT22;8691;50.828;4.700;2023-01-30T03:14:46;6.10;99.90
17152;DHT22;8691;50.828;4.700;2023-01-30T03:17:12;6.10;99.90
17152;DHT22;8691;50.828;4.700;2023-01-30T03:19:40;6.10;99.90
17152;DHT22;8691;50.828;4.700;2023-01-30T03:22:08;6.10;99.90
17152;DHT22;8691;50.828;4.700;2023-01-30T03:24:36;6.20;99.90
17152;DHT22;8691;50.828;4.700;2023-01-30T03:27:04;6.10;99.90
17152;DHT22;8691;50.828;4.700;2023-01-30T03:29:31;6.20;99.90
17152;DHT22;8691;50.828;4.700;2023-01-30T03:31:58;6.20;99.90
17152;DHT22;8691;50.828;4.700;2023-01-30T03:34:25;6.20;99.90
17152;DHT22;8691;50.828;4.700;2023-01-30T03:36:53;6.20;99.90
17152;DHT22;8691;50.828;4.700;2023-01-30T03:39:21;6.20;99.90
17152;DHT22;8691;50.828;4.700;2023-01-30T03:41:47;6.30;99.90
17152;DHT22;8691;50.828;4.700;2023-01-30T03:44:14;6.30;99.90
17152;DHT22;8691;50.828;4.700;2023-01-30T03:46:41;6.30;99.90
17152;DHT22;8691;50.828;4.700;2023-01-30T03:49:08;6.30;99.90
17152;DHT22;8691;50.828;4.700;2023-01-30T03:51:35;6.40;99.90
17152;DHT22;8691;50.828;4.700;2023-01-30T03:54:02;6.40;99.90
17152;DHT22;8691;50.828;4.700;2023-01-30T03:56:29;6.50;99.90
17152;DHT22;8691;50.828;4.700;2023-01-30T03:58:55;6.50;99.90
17152;DHT22;8691;50.828;4.700;2023-01-30T04:01:22;6.50;99.90
17152;DHT22;8691;50.828;4.700;2023-01-30T04:03:49;6.50;99.90
17152;DHT22;8691;50.828;4.700;2023-01-30T04:06:16;6.50;99.90
17152;DHT22;8691;50.828;4.700;2023-01-30T04:08:43;6.60;99.90
17152;DHT22;8691;50.828;4.700;2023-01-30T04:11:10;6.70;99.90
17152;DHT22;8691;50.828;4.700;2023-01-30T04:13:37;6.70;99.90
17152;DHT22;8691;50.828;4.700;2023-01-30T04:16:23;6.70;99.90
17152;DHT22;8691;50.828;4.700;2023-01-30T04:18:49;6.80;99.90
17152;DHT22;8691;50.828;4.700;2023-01-30T04:21:16;6.80;99.90
17152;DHT22;8691;50.828;4.700;2023-01-30T04:23:43;6.70;99.90
17152;DHT22;8691;50.828;4.700;2023-01-30T04:26:10;6.60;99.90
17152;DHT22;8691;50.828;4.700;2023-01-30T04:28:37;6.60;99.90
17152;DHT22;8691;50.828;4.700;2023-01-30T04:31:04;6.60;99.90
17152;DHT22;8691;50.828;4.700;2023-01-30T04:33:31;6.50;99.90
17152;DHT22;8691;50.828;4.700;2023-01-30T04:35:58;6.40;99.90
17152;DHT22;8691;50.828;4.700;2023-01-30T04:38:26;6.40;99.90
17152;DHT22;8691;50.828;4.700;2023-01-30T04:40:54;6.40;99.90
17152;DHT22;8691;50.828;4.700;2023-01-30T04:43:21;6.40;99.90
17152;DHT22;8691;50.828;4.700;2023-01-30T04:45:48;6.40;99.90
17152;DHT22;8691;50.828;4.700;2023-01-30T04:48:15;6.40;99.90
17152;DHT22;8691;50.828;4.700;2023-01-30T04:50:42;6.40;99.90
17152;DHT22;8691;50.828;4.700;2023-01-30T04:53:09;6.40;99.90
17152;DHT22;8691;50.828;4.700;2023-01-30T04:55:36;6.40;99.90
17152;DHT22;8691;50.828;4.700;2023-01-30T04:58:02;6.40;99.90
17152;DHT22;8691;50.828;4.700;2023-01-30T05:00:29;6.40;99.90
17152;DHT22;8691;50.828;4.700;2023-01-30T05:02:56;6.40;99.90
17152;DHT22;8691;50.828;4.700;2023-01-30T05:05:24;6.40;99.90
17152;DHT22;8691;50.828;4.700;2023-01-30T05:07:50;6.50;99.90
17152;DHT22;8691;50.828;4.700;2023-01-30T05:10:17;6.50;99.90
17152;DHT22;8691;50.828;4.700;2023-01-30T05:12:44;6.50;99.90
17152;DHT22;8691;50.828;4.700;2023-01-30T05:15:11;6.40;99.90
17152;DHT22;8691;50.828;4.700;2023-01-30T05:17:39;6.40;99.90
17152;DHT22;8691;50.828;4.700;2023-01-30T05:20:06;6.40;99.90
17152;DHT22;8691;50.828;4.700;2023-01-30T05:22:32;6.40;99.90
17152;DHT22;8691;50.828;4.700;2023-01-30T05:24:59;6.40;99.90
17152;DHT22;8691;50.828;4.700;2023-01-30T05:27:26;6.40;99.90
17152;DHT22;8691;50.828;4.700;2023-01-30T05:29:53;6.40;99.90
17152;DHT22;8691;50.828;4.700;2023-01-30T05:32:20;6.40;99.90
17152;DHT22;8691;50.828;4.700;2023-01-30T05:34:50;6.50;99.90
17152;DHT22;8691;50.828;4.700;2023-01-30T05:37:17;6.50;99.90
17152;DHT22;8691;50.828;4.700;2023-01-30T05:39:44;6.50;99.90
17152;DHT22;8691;50.828;4.700;2023-01-30T05:42:11;6.50;99.90
17152;DHT22;8691;50.828;4.700;2023-01-30T05:44:38;6.40;99.90
17152;DHT22;8691;50.828;4.700;2023-01-30T05:47:05;6.50;99.90
17152;DHT22;8691;50.828;4.700;2023-01-30T05:49:32;6.50;99.90
17152;DHT22;8691;50.828;4.700;2023-01-30T05:51:59;6.50;99.90
17152;DHT22;8691;50.828;4.700;2023-01-30T05:54:26;6.50;99.90
17152;DHT22;8691;50.828;4.700;2023-01-30T05:56:53;6.50;99.90
17152;DHT22;8691;50.828;4.700;2023-01-30T05:59:20;6.60;99.90
17152;DHT22;8691;50.828;4.700;2023-01-30T06:01:47;6.60;99.90
17152;DHT22;8691;50.828;4.700;2023-01-30T06:04:14;6.60;99.90
17152;DHT22;8691;50.828;4.700;2023-01-30T06:06:41;6.60;99.90
17152;DHT22;8691;50.828;4.700;2023-01-30T06:09:08;6.60;99.90
17152;DHT22;8691;50.828;4.700;2023-01-30T06:11:35;6.60;99.90
17152;DHT22;8691;50.828;4.700;2023-01-30T06:14:02;6.70;99.90
17152;DHT22;8691;50.828;4.700;2023-01-30T06:16:29;6.80;99.90
17152;DHT22;8691;50.828;4.700;2023-01-30T06:18:56;6.80;99.90
17152;DHT22;8691;50.828;4.700;2023-01-30T06:21:23;6.80;99.90
17152;DHT22;8691;50.828;4.700;2023-01-30T06:23:51;6.70;99.90
17152;DHT22;8691;50.828;4.700;2023-01-30T06:26:19;6.80;99.90
17152;DHT22;8691;50.828;4.700;2023-01-30T06:28:46;6.70;99.90
17152;DHT22;8691;50.828;4.700;2023-01-30T06:31:13;6.80;99.90
17152;DHT22;8691;50.828;4.700;2023-01-30T06:33:40;6.80;99.90
17152;DHT22;8691;50.828;4.700;2023-01-30T06:36:07;6.80;99.90
17152;DHT22;8691;50.828;4.700;2023-01-30T06:38:34;6.80;99.90
17152;DHT22;8691;50.828;4.700;2023-01-30T06:41:01;6.80;99.90
17152;DHT22;8691;50.828;4.700;2023-01-30T06:43:28;6.80;99.90
17152;DHT22;8691;50.828;4.700;2023-01-30T06:45:57;6.90;99.90
17152;DHT22;8691;50.828;4.700;2023-01-30T06:48:21;7.00;99.90
17152;DHT22;8691;50.828;4.700;2023-01-30T06:50:48;7.00;99.90
17152;DHT22;8691;50.828;4.700;2023-01-30T06:53:15;7.00;99.90
17152;DHT22;8691;50.828;4.700;2023-01-30T06:55:42;7.00;99.90
17152;DHT22;8691;50.828;4.700;2023-01-30T06:58:10;6.90;99.90
17152;DHT22;8691;50.828;4.700;2023-01-30T07:00:36;6.90;99.90
17152;DHT22;8691;50.828;4.700;2023-01-30T07:03:04;6.90;99.90
17152;DHT22;8691;50.828;4.700;2023-01-30T07:05:31;6.90;99.90
17152;DHT22;8691;50.828;4.700;2023-01-30T07:07:58;6.90;99.90
17152;DHT22;8691;50.828;4.700;2023-01-30T07:10:25;6.90;99.90
17152;DHT22;8691;50.828;4.700;2023-01-30T07:12:52;7.00;99.90
17152;DHT22;8691;50.828;4.700;2023-01-30T07:15:19;6.90;99.90
17152;DHT22;8691;50.828;4.700;2023-01-30T07:17:45;7.00;99.90
17152;DHT22;8691;50.828;4.700;2023-01-30T07:20:13;6.90;99.90
17152;DHT22;8691;50.828;4.700;2023-01-30T07:22:40;6.80;99.90
17152;DHT22;8691;50.828;4.700;2023-01-30T07:25:07;6.80;99.90
17152;DHT22;8691;50.828;4.700;2023-01-30T07:27:34;6.80;99.90
17152;DHT22;8691;50.828;4.700;2023-01-30T07:30:01;6.80;99.90
17152;DHT22;8691;50.828;4.700;2023-01-30T07:32:28;6.80;99.90
17152;DHT22;8691;50.828;4.700;2023-01-30T07:34:55;6.80;99.90
17152;DHT22;8691;50.828;4.700;2023-01-30T07:37:21;6.80;99.90
17152;DHT22;8691;50.828;4.700;2023-01-30T07:39:48;6.80;99.90
17152;DHT22;8691;50.828;4.700;2023-01-30T07:42:15;6.90;99.90
17152;DHT22;8691;50.828;4.700;2023-01-30T07:44:42;6.90;99.90
17152;DHT22;8691;50.828;4.700;2023-01-30T07:47:09;6.90;99.90
17152;DHT22;8691;50.828;4.700;2023-01-30T07:49:36;6.90;99.90
17152;DHT22;8691;50.828;4.700;2023-01-30T07:52:03;6.90;99.90
17152;DHT22;8691;50.828;4.700;2023-01-30T07:54:30;6.80;99.90
17152;DHT22;8691;50.828;4.700;2023-01-30T07:56:57;6.80;99.90
17152;DHT22;8691;50.828;4.700;2023-01-30T07:59:23;6.90;99.90
17152;DHT22;8691;50.828;4.700;2023-01-30T08:01:50;6.90;99.90
17152;DHT22;8691;50.828;4.700;2023-01-30T08:04:18;7.00;99.90
17152;DHT22;8691;50.828;4.700;2023-01-30T08:06:45;7.00;99.90
17152;DHT22;8691;50.828;4.700;2023-01-30T08:09:12;7.00;99.90
17152;DHT22;8691;50.828;4.700;2023-01-30T08:11:39;7.00;99.90
17152;DHT22;8691;50.828;4.700;2023-01-30T08:14:06;7.10;99.90
17152;DHT22;8691;50.828;4.700;2023-01-30T08:16:33;7.10;99.90
17152;DHT22;8691;50.828;4.700;2023-01-30T08:18:59;7.20;99.90
17152;DHT22;8691;50.828;4.700;2023-01-30T08:21:27;7.20;99.90
17152;DHT22;8691;50.828;4.700;2023-01-30T08:23:54;7.20;99.90
17152;DHT22;8691;50.828;4.700;2023-01-30T08:26:21;7.20;99.90
17152;DHT22;8691;50.828;4.700;2023-01-30T08:28:48;7.30;99.90
17152;DHT22;8691;50.828;4.700;2023-01-30T08:31:15;7.30;99.90
17152;DHT22;8691;50.828;4.700;2023-01-30T08:33:42;7.40;99.90
17152;DHT22;8691;50.828;4.700;2023-01-30T08:36:08;7.50;99.90
17152;DHT22;8691;50.828;4.700;2023-01-30T08:38:35;7.60;99.90
17152;DHT22;8691;50.828;4.700;2023-01-30T08:41:05;7.90;99.90
17152;DHT22;8691;50.828;4.700;2023-01-30T08:43:32;8.20;99.90
17152;DHT22;8691;50.828;4.700;2023-01-30T08:45:58;8.60;99.90
17152;DHT22;8691;50.828;4.700;2023-01-30T08:48:25;8.70;99.90
17152;DHT22;8691;50.828;4.700;2023-01-30T08:50:53;8.50;99.90
17152;DHT22;8691;50.828;4.700;2023-01-30T08:53:19;8.40;99.90
17152;DHT22;8691;50.828;4.700;2023-01-30T08:55:48;8.30;99.90
17152;DHT22;8691;50.828;4.700;2023-01-30T08:58:13;8.40;99.90
17152;DHT22;8691;50.828;4.700;2023-01-30T09:00:40;8.70;99.90
17152;DHT22;8691;50.828;4.700;2023-01-30T09:03:07;9.20;99.90
17152;DHT22;8691;50.828;4.700;2023-01-30T09:05:34;10.40;99.90
17152;DHT22;8691;50.828;4.700;2023-01-30T09:08:01;10.30;99.90
17152;DHT22;8691;50.828;4.700;2023-01-30T09:10:28;10.60;99.90
17152;DHT22;8691;50.828;4.700;2023-01-30T09:12:56;11.30;99.90
17152;DHT22;8691;50.828;4.700;2023-01-30T09:15:23;11.20;99.90
17152;DHT22;8691;50.828;4.700;2023-01-30T09:17:53;11.70;99.90
17152;DHT22;8691;50.828;4.700;2023-01-30T09:20:17;11.80;99.90
17152;DHT22;8691;50.828;4.700;2023-01-30T09:22:44;11.80;99.90
17152;DHT22;8691;50.828;4.700;2023-01-30T09:25:11;12.20;99.90
17152;DHT22;8691;50.828;4.700;2023-01-30T09:27:38;11.90;99.90
17152;DHT22;8691;50.828;4.700;2023-01-30T09:30:04;12.30;99.90
17152;DHT22;8691;50.828;4.700;2023-01-30T09:32:32;12.60;99.90
17152;DHT22;8691;50.828;4.700;2023-01-30T09:34:59;12.60;99.90
17152;DHT22;8691;50.828;4.700;2023-01-30T09:37:26;12.30;99.90
17152;DHT22;8691;50.828;4.700;2023-01-30T09:39:53;12.20;99.90
17152;DHT22;8691;50.828;4.700;2023-01-30T09:42:43;13.00;99.90
17152;DHT22;8691;50.828;4.700;2023-01-30T09:45:14;12.90;99.90
17152;DHT22;8691;50.828;4.700;2023-01-30T09:53:22;12.70;99.90
17152;DHT22;8691;50.828;4.700;2023-01-30T09:55:46;12.70;99.90
17152;DHT22;8691;50.828;4.700;2023-01-30T09:58:19;12.10;99.90
17152;DHT22;8691;50.828;4.700;2023-01-30T10:00:43;12.10;99.90
17152;DHT22;8691;50.828;4.700;2023-01-30T10:03:10;12.40;99.90
17152;DHT22;8691;50.828;4.700;2023-01-30T10:05:52;12.10;99.90
17152;DHT22;8691;50.828;4.700;2023-01-30T10:11:17;12.40;99.90
17152;DHT22;8691;50.828;4.700;2023-01-30T10:14:05;12.60;99.90
17152;DHT22;8691;50.828;4.700;2023-01-30T10:21:49;12.40;99.90
17152;DHT22;8691;50.828;4.700;2023-01-30T10:24:18;12.10;99.90
17152;DHT22;8691;50.828;4.700;2023-01-30T10:26:40;11.50;99.90
17152;DHT22;8691;50.828;4.700;2023-01-30T10:29:23;11.30;99.90
17152;DHT22;8691;50.828;4.700;2023-01-30T10:34:24;11.00;99.90
17152;DHT22;8691;50.828;4.700;2023-01-30T10:36:53;11.50;99.90
17152;DHT22;8691;50.828;4.700;2023-01-30T10:39:30;11.40;99.90
17152;DHT22;8691;50.828;4.700;2023-01-30T10:42:07;11.60;99.90
17152;DHT22;8691;50.828;4.700;2023-01-30T10:44:30;11.60;99.90
17152;DHT22;8691;50.828;4.700;2023-01-30T10:49:59;11.30;99.90
17152;DHT22;8691;50.828;4.700;2023-01-30T10:52:37;11.20;99.90
17152;DHT22;8691;50.828;4.700;2023-01-30T10:55:09;10.80;99.90
17152;DHT22;8691;50.828;4.700;2023-01-30T11:00:42;10.30;99.90
17152;DHT22;8691;50.828;4.700;2023-01-30T11:05:48;10.60;99.90
17152;DHT22;8691;50.828;4.700;2023-01-30T11:08:21;10.60;99.90
17152;DHT22;8691;50.828;4.700;2023-01-30T11:10:46;10.60;99.90
17152;DHT22;8691;50.828;4.700;2023-01-30T11:13:17;10.50;99.90
17152;DHT22;8691;50.828;4.700;2023-01-30T11:15:43;10.40;99.90
17152;DHT22;8691;50.828;4.700;2023-01-30T11:18:09;10.30;99.90
17152;DHT22;8691;50.828;4.700;2023-01-30T11:20:40;10.20;99.90
17152;DHT22;8691;50.828;4.700;2023-01-30T11:23:07;10.30;99.90
17152;DHT22;8691;50.828;4.700;2023-01-30T11:25:49;10.20;99.90
17152;DHT22;8691;50.828;4.700;2023-01-30T11:28:15;10.20;99.90
17152;DHT22;8691;50.828;4.700;2023-01-30T11:30:57;10.20;99.90
17152;DHT22;8691;50.828;4.700;2023-01-30T11:33:30;10.10;99.90
17152;DHT22;8691;50.828;4.700;2023-01-30T11:38:53;10.10;99.90
17152;DHT22;8691;50.828;4.700;2023-01-30T11:41:16;10.10;99.90
17152;DHT22;8691;50.828;4.700;2023-01-30T11:43:39;10.20;99.90
17152;DHT22;8691;50.828;4.700;2023-01-30T11:46:08;10.10;99.90
17152;DHT22;8691;50.828;4.700;2023-01-30T11:48:38;10.00;99.90
17152;DHT22;8691;50.828;4.700;2023-01-30T11:51:03;9.80;99.90
17152;DHT22;8691;50.828;4.700;2023-01-30T11:54:12;9.80;99.90
17152;DHT22;8691;50.828;4.700;2023-01-30T11:56:02;9.80;99.90
17152;DHT22;8691;50.828;4.700;2023-01-30T11:58:28;9.80;99.90
17152;DHT22;8691;50.828;4.700;2023-01-30T12:00:52;9.70;99.90
17152;DHT22;8691;50.828;4.700;2023-01-30T12:03:21;9.80;99.90
17152;DHT22;8691;50.828;4.700;2023-01-30T12:05:46;9.80;99.90
17152;DHT22;8691;50.828;4.700;2023-01-30T12:10:54;9.70;99.90
17152;DHT22;8691;50.828;4.700;2023-01-30T12:13:20;9.70;99.90
17152;DHT22;8691;50.828;4.700;2023-01-30T12:15:45;9.70;99.90
17152;DHT22;8691;50.828;4.700;2023-01-30T12:18:25;9.60;99.90
17152;DHT22;8691;50.828;4.700;2023-01-30T12:20:58;9.60;99.90
17152;DHT22;8691;50.828;4.700;2023-01-30T12:31:42;9.70;99.90
17152;DHT22;8691;50.828;4.700;2023-01-30T12:33:59;9.80;99.90
17152;DHT22;8691;50.828;4.700;2023-01-30T12:47:16;9.60;99.90
17152;DHT22;8691;50.828;4.700;2023-01-30T12:57:51;9.60;99.90
17152;DHT22;8691;50.828;4.700;2023-01-30T13:03:23;9.40;99.90
17152;DHT22;8691;50.828;4.700;2023-01-30T13:11:43;9.50;99.90
17152;DHT22;8691;50.828;4.700;2023-01-30T13:14:13;9.20;99.90
17152;DHT22;8691;50.828;4.700;2023-01-30T13:19:38;9.20;99.90
17152;DHT22;8691;50.828;4.700;2023-01-30T13:22:20;9.30;99.90
17152;DHT22;8691;50.828;4.700;2023-01-30T13:24:55;9.20;99.90
17152;DHT22;8691;50.828;4.700;2023-01-30T13:27:19;9.20;99.90
17152;DHT22;8691;50.828;4.700;2023-01-30T13:29:46;9.20;99.90
17152;DHT22;8691;50.828;4.700;2023-01-30T13:34:58;9.30;99.90
17152;DHT22;8691;50.828;4.700;2023-01-30T13:37:25;9.30;99.90
17152;DHT22;8691;50.828;4.700;2023-01-30T13:39:56;9.30;99.90
17152;DHT22;8691;50.828;4.700;2023-01-30T13:45:27;9.50;99.90
17152;DHT22;8691;50.828;4.700;2023-01-30T13:50:34;9.50;99.90
17152;DHT22;8691;50.828;4.700;2023-01-30T13:56:00;9.50;99.90
17152;DHT22;8691;50.828;4.700;2023-01-30T14:01:15;9.50;99.90
17152;DHT22;8691;50.828;4.700;2023-01-30T14:03:42;9.40;99.90
17152;DHT22;8691;50.828;4.700;2023-01-30T14:06:12;9.30;99.90
17152;DHT22;8691;50.828;4.700;2023-01-30T14:11:34;9.50;99.90
17152;DHT22;8691;50.828;4.700;2023-01-30T14:16:45;9.60;99.90
17152;DHT22;8691;50.828;4.700;2023-01-30T14:22:17;9.70;99.90
17152;DHT22;8691;50.828;4.700;2023-01-30T14:24:42;9.70;99.90
17152;DHT22;8691;50.828;4.700;2023-01-30T14:27:23;9.80;99.90
17152;DHT22;8691;50.828;4.700;2023-01-30T14:29:49;9.70;99.90
17152;DHT22;8691;50.828;4.700;2023-01-30T14:40:01;9.40;99.90
17152;DHT22;8691;50.828;4.700;2023-01-30T14:42:28;9.60;99.90
17152;DHT22;8691;50.828;4.700;2023-01-30T14:44:58;9.60;99.90
17152;DHT22;8691;50.828;4.700;2023-01-30T14:47:24;9.70;99.90
17152;DHT22;8691;50.828;4.700;2023-01-30T14:49:51;9.70;99.90
17152;DHT22;8691;50.828;4.700;2023-01-30T14:52:39;9.50;99.90
17152;DHT22;8691;50.828;4.700;2023-01-30T14:55:14;9.50;99.90
17152;DHT22;8691;50.828;4.700;2023-01-30T14:57:33;9.40;99.90
17152;DHT22;8691;50.828;4.700;2023-01-30T15:00:19;9.30;99.90
17152;DHT22;8691;50.828;4.700;2023-01-30T15:02:50;9.30;99.90
17152;DHT22;8691;50.828;4.700;2023-01-30T15:05:26;9.20;99.90
17152;DHT22;8691;50.828;4.700;2023-01-30T15:08:01;9.20;99.90
17152;DHT22;8691;50.828;4.700;2023-01-30T15:13:29;8.80;99.90
17152;DHT22;8691;50.828;4.700;2023-01-30T15:16:06;8.80;99.90
17152;DHT22;8691;50.828;4.700;2023-01-30T15:27:17;8.70;99.90
17152;DHT22;8691;50.828;4.700;2023-01-30T15:32:42;8.80;99.90
17152;DHT22;8691;50.828;4.700;2023-01-30T15:45:43;8.70;99.90
17152;DHT22;8691;50.828;4.700;2023-01-30T15:48:13;8.60;99.90
17152;DHT22;8691;50.828;4.700;2023-01-30T15:50:35;8.50;99.90
17152;DHT22;8691;50.828;4.700;2023-01-30T15:53:01;8.50;99.90
17152;DHT22;8691;50.828;4.700;2023-01-30T15:55:29;8.40;99.90
17152;DHT22;8691;50.828;4.700;2023-01-30T15:57:56;8.30;99.90
17152;DHT22;8691;50.828;4.700;2023-01-30T16:00:26;8.30;99.90
17152;DHT22;8691;50.828;4.700;2023-01-30T16:02:53;8.20;99.90
17152;DHT22;8691;50.828;4.700;2023-01-30T16:05:23;8.20;99.90
17152;DHT22;8691;50.828;4.700;2023-01-30T16:07:50;8.20;99.90
17152;DHT22;8691;50.828;4.700;2023-01-30T16:10:19;8.20;99.90
17152;DHT22;8691;50.828;4.700;2023-01-30T16:12:46;8.20;99.90
17152;DHT22;8691;50.828;4.700;2023-01-30T16:15:19;8.10;99.90
17152;DHT22;8691;50.828;4.700;2023-01-30T16:17:44;8.00;99.90
17152;DHT22;8691;50.828;4.700;2023-01-30T16:20:13;8.00;99.90
17152;DHT22;8691;50.828;4.700;2023-01-30T16:22:41;7.90;99.90
17152;DHT22;8691;50.828;4.700;2023-01-30T16:25:10;8.00;99.90
17152;DHT22;8691;50.828;4.700;2023-01-30T16:27:33;7.90;99.90
17152;DHT22;8691;50.828;4.700;2023-01-30T16:30:03;7.90;99.90
17152;DHT22;8691;50.828;4.700;2023-01-30T16:32:28;7.90;99.90
17152;DHT22;8691;50.828;4.700;2023-01-30T16:37:52;7.80;99.90
17152;DHT22;8691;50.828;4.700;2023-01-30T16:40:40;7.80;99.90
17152;DHT22;8691;50.828;4.700;2023-01-30T16:43:03;7.70;99.90
17152;DHT22;8691;50.828;4.700;2023-01-30T16:50:45;7.90;99.90
17152;DHT22;8691;50.828;4.700;2023-01-30T16:53:12;7.90;99.90
17152;DHT22;8691;50.828;4.700;2023-01-30T16:55:39;7.80;99.90
17152;DHT22;8691;50.828;4.700;2023-01-30T16:58:06;7.70;99.90
17152;DHT22;8691;50.828;4.700;2023-01-30T17:00:34;7.70;99.90
17152;DHT22;8691;50.828;4.700;2023-01-30T17:03:00;7.70;99.90
17152;DHT22;8691;50.828;4.700;2023-01-30T17:05:28;7.60;99.90
17152;DHT22;8691;50.828;4.700;2023-01-30T17:07:54;7.60;99.90
17152;DHT22;8691;50.828;4.700;2023-01-30T17:12:54;7.80;99.90
17152;DHT22;8691;50.828;4.700;2023-01-30T17:15:25;7.70;99.90
17152;DHT22;8691;50.828;4.700;2023-01-30T17:17:51;7.70;99.90
17152;DHT22;8691;50.828;4.700;2023-01-30T17:20:18;7.70;99.90
17152;DHT22;8691;50.828;4.700;2023-01-30T17:22:45;7.60;99.90
17152;DHT22;8691;50.828;4.700;2023-01-30T17:25:32;7.60;99.90
17152;DHT22;8691;50.828;4.700;2023-01-30T17:27:54;7.40;99.90
17152;DHT22;8691;50.828;4.700;2023-01-30T17:30:21;7.40;99.90
17152;DHT22;8691;50.828;4.700;2023-01-30T17:32:48;7.40;99.90
17152;DHT22;8691;50.828;4.700;2023-01-30T17:35:18;7.50;99.90
17152;DHT22;8691;50.828;4.700;2023-01-30T17:37:46;7.30;99.90
17152;DHT22;8691;50.828;4.700;2023-01-30T17:40:19;7.30;99.90
17152;DHT22;8691;50.828;4.700;2023-01-30T17:42:45;7.30;99.90
17152;DHT22;8691;50.828;4.700;2023-01-30T17:45:12;7.30;99.90
17152;DHT22;8691;50.828;4.700;2023-01-30T17:47:39;7.10;99.90
17152;DHT22;8691;50.828;4.700;2023-01-30T17:50:13;6.90;99.90
17152;DHT22;8691;50.828;4.700;2023-01-30T17:52:36;6.90;99.90
17152;DHT22;8691;50.828;4.700;2023-01-30T17:55:03;6.90;99.90
17152;DHT22;8691;50.828;4.700;2023-01-30T17:57:30;6.90;99.90
17152;DHT22;8691;50.828;4.700;2023-01-30T17:59:57;6.90;99.90
17152;DHT22;8691;50.828;4.700;2023-01-30T18:02:24;6.90;99.90
17152;DHT22;8691;50.828;4.700;2023-01-30T18:04:51;6.80;99.90
17152;DHT22;8691;50.828;4.700;2023-01-30T18:07:18;6.70;99.90
17152;DHT22;8691;50.828;4.700;2023-01-30T18:09:45;6.70;99.90
17152;DHT22;8691;50.828;4.700;2023-01-30T18:12:11;6.70;99.90
17152;DHT22;8691;50.828;4.700;2023-01-30T18:14:39;6.60;99.90
17152;DHT22;8691;50.828;4.700;2023-01-30T18:17:06;6.60;99.90
17152;DHT22;8691;50.828;4.700;2023-01-30T18:19:33;6.70;99.90
17152;DHT22;8691;50.828;4.700;2023-01-30T18:22:00;6.60;99.90
17152;DHT22;8691;50.828;4.700;2023-01-30T18:24:27;6.60;99.90
17152;DHT22;8691;50.828;4.700;2023-01-30T18:26:53;6.60;99.90
17152;DHT22;8691;50.828;4.700;2023-01-30T18:29:21;6.50;99.90
17152;DHT22;8691;50.828;4.700;2023-01-30T18:31:48;6.50;99.90
17152;DHT22;8691;50.828;4.700;2023-01-30T18:34:15;6.40;99.90
17152;DHT22;8691;50.828;4.700;2023-01-30T18:36:41;6.40;99.90